createdAt,value
2019-05-23T00:00:49.475Z,3.00
2019-05-23T00:05:57.917Z,3.00
2019-05-23T00:11:04.235Z,3.00
2019-05-23T00:16:09.656Z,3.00
2019-05-23T00:21:14.197Z,3.25
2019-05-23T00:26:18.137Z,2.50
2019-05-23T00:31:26.550Z,2.00
2019-05-23T00:36:31.393Z,2.75
2019-05-23T00:41:35.623Z,2.80
2019-05-23T00:46:39.483Z,3.00
2019-05-23T00:51:43.530Z,3.00
2019-05-23T00:56:47.502Z,2.80
2019-05-23T01:01:51.280Z,2.50
2019-05-23T01:06:56.257Z,2.80
2019-05-23T01:12:00.023Z,2.00
2019-05-23T01:17:03.864Z,3.00
2019-05-23T01:22:10.411Z,3.00
2019-05-23T01:27:14.262Z,3.00
2019-05-23T01:32:25.767Z,2.00
2019-05-23T01:37:31.361Z,3.00
2019-05-23T01:42:38.501Z,2.50
2019-05-23T01:47:42.673Z,3.00
2019-05-23T01:52:46.668Z,2.00
2019-05-23T01:57:51.213Z,2.20
2019-05-23T02:02:56.104Z,2.00
2019-05-23T02:08:00.171Z,2.00
2019-05-23T02:13:03.989Z,3.00
2019-05-23T02:18:07.831Z,2.50
2019-05-23T02:23:12.902Z,2.75
2019-05-23T02:28:17.564Z,1.50
2019-05-23T02:33:21.366Z,2.20
2019-05-23T02:38:47.164Z,3.00
2019-05-23T02:43:55.805Z,2.25
2019-05-23T02:49:04.289Z,1.75
2019-05-23T02:54:09.904Z,2.60
2019-05-23T02:59:38.888Z,2.00
2019-05-23T03:04:44.370Z,1.50
2019-05-23T03:09:48.467Z,2.25
2019-05-23T03:14:52.234Z,2.00
2019-05-23T03:20:01.399Z,2.75
2019-05-23T03:25:09.322Z,2.00
2019-05-23T03:30:17.232Z,2.00
2019-05-23T03:35:26.589Z,2.00
2019-05-23T03:40:30.573Z,2.00
2019-05-23T03:45:40.373Z,2.00
2019-05-23T03:50:44.443Z,2.00
2019-05-23T03:55:50.218Z,2.00
2019-05-23T04:00:57.207Z,1.50
2019-05-23T04:06:02.111Z,1.50
2019-05-23T04:11:06.075Z,2.00
2019-05-23T04:16:11.422Z,2.00
2019-05-23T04:21:16.256Z,2.00
2019-05-23T04:26:23.790Z,2.60
2019-05-23T04:31:27.549Z,2.00
2019-05-23T04:36:31.359Z,1.60
2019-05-23T04:41:35.191Z,1.00
2019-05-23T04:46:39.224Z,1.00
2019-05-23T04:51:43.176Z,1.75
2019-05-23T04:56:46.936Z,2.00
2019-05-23T05:01:50.948Z,1.50
2019-05-23T05:06:55.275Z,2.00
2019-05-23T05:12:00.230Z,1.00
2019-05-23T05:17:04.981Z,1.00
2019-05-23T05:22:08.762Z,2.00
2019-05-23T05:27:14.845Z,2.00
2019-05-23T05:32:18.880Z,2.00
2019-05-23T05:37:22.662Z,2.00
2019-05-23T05:42:28.077Z,1.00
2019-05-23T05:47:32.011Z,2.00
2019-05-23T05:52:36.285Z,1.50
2019-05-23T05:57:40.105Z,1.00
2019-05-23T06:03:00.877Z,1.00
2019-05-23T06:07:50.562Z,1.25
2019-05-23T06:12:54.347Z,1.00
2019-05-23T06:17:58.316Z,1.60
2019-05-23T06:23:02.123Z,9.00
2019-05-23T06:28:06.705Z,9.60
2019-05-23T06:33:22.467Z,11.00
2019-05-23T06:38:17.243Z,11.00
2019-05-23T06:43:21.059Z,10.50
2019-05-23T06:48:25.357Z,10.50
2019-05-23T06:53:29.167Z,13.50
2019-05-23T06:58:33.062Z,12.25
2019-05-23T07:03:42.552Z,12.00
2019-05-23T07:08:42.498Z,10.80
2019-05-23T07:13:47.669Z,13.00
2019-05-23T07:18:51.517Z,8.25
2019-05-23T07:23:55.318Z,5.20
2019-05-23T07:28:59.127Z,5.00
2019-05-23T07:34:02.911Z,5.50
2019-05-23T07:39:11.460Z,5.25
2019-05-23T07:44:14.436Z,5.00
2019-05-23T07:49:18.315Z,5.00
2019-05-23T07:54:27.788Z,4.80
2019-05-23T07:59:32.061Z,3.75
2019-05-23T08:04:35.973Z,3.50
2019-05-23T08:09:40.491Z,4.00
2019-05-23T08:14:44.269Z,3.60
2019-05-23T08:19:50.102Z,3.75
2019-05-23T08:24:53.773Z,3.60
2019-05-23T08:29:57.739Z,3.75
2019-05-23T08:35:01.872Z,3.25
2019-05-23T08:40:06.989Z,4.00
2019-05-23T08:45:11.975Z,3.00
2019-05-23T08:50:17.318Z,4.00
2019-05-23T08:55:21.908Z,4.00
2019-05-23T09:00:27.204Z,4.50
2019-05-23T09:05:32.276Z,3.00
2019-05-23T09:10:36.192Z,5.40
2019-05-23T09:15:40.108Z,4.00
2019-05-23T09:20:43.918Z,4.00
2019-05-23T09:25:47.688Z,4.00
2019-05-23T09:30:51.666Z,4.00
2019-05-23T09:35:55.584Z,5.00
2019-05-23T09:40:59.340Z,4.00
2019-05-23T09:46:03.102Z,5.00
2019-05-23T09:51:06.890Z,4.00
2019-05-23T09:56:10.703Z,4.00
2019-05-23T10:01:14.988Z,3.50
2019-05-23T10:06:20.380Z,4.75
2019-05-23T10:11:24.217Z,5.00
2019-05-23T10:16:28.783Z,5.00
2019-05-23T10:21:32.678Z,6.00
2019-05-23T10:26:36.531Z,4.00
2019-05-23T10:31:40.458Z,6.20
2019-05-23T10:36:44.190Z,5.00
2019-05-23T10:41:48.245Z,11.00
2019-05-23T10:46:52.006Z,5.50
2019-05-23T10:51:55.854Z,5.00
2019-05-23T10:56:59.620Z,4.75
2019-05-23T11:02:03.638Z,5.00
2019-05-23T11:07:08.423Z,4.00
2019-05-23T11:12:13.635Z,4.00
2019-05-23T11:17:17.477Z,4.80
2019-05-23T11:22:22.038Z,4.80
2019-05-23T11:27:26.789Z,4.00
2019-05-23T11:32:30.928Z,4.25
2019-05-23T11:37:34.780Z,4.50
2019-05-23T11:42:38.549Z,4.00
2019-05-23T11:47:42.891Z,4.00
2019-05-23T11:52:46.719Z,4.00
2019-05-23T11:57:50.491Z,4.00
2019-05-23T12:02:54.534Z,4.00
2019-05-23T12:07:58.428Z,4.00
2019-05-23T12:13:02.264Z,4.00
2019-05-23T12:18:07.294Z,5.00
2019-05-23T12:23:11.377Z,3.00
2019-05-23T12:28:15.489Z,3.00
2019-05-23T12:33:19.754Z,4.00
2019-05-23T12:38:23.611Z,4.00
2019-05-23T12:43:27.421Z,3.00
2019-05-23T12:48:56.043Z,3.75
2019-05-23T12:53:59.835Z,3.75
2019-05-23T12:59:05.193Z,4.00
2019-05-23T13:04:15.872Z,3.00
2019-05-23T13:09:19.656Z,3.00
2019-05-23T13:14:23.638Z,3.40
2019-05-23T13:19:28.077Z,4.00
2019-05-23T13:24:50.537Z,3.50
2019-05-23T13:29:37.762Z,3.00
2019-05-23T13:34:41.589Z,3.00
2019-05-23T13:39:45.357Z,2.25
2019-05-23T13:44:50.083Z,4.00
2019-05-23T13:49:53.851Z,2.50
2019-05-23T13:54:57.651Z,3.25
2019-05-23T14:00:01.438Z,3.60
2019-05-23T14:05:06.359Z,2.80
2019-05-23T14:10:12.623Z,3.00
2019-05-23T14:15:19.290Z,3.20
2019-05-23T14:20:23.523Z,2.80
2019-05-23T14:25:27.467Z,3.40
2019-05-23T14:31:02.195Z,3.00
2019-05-23T14:36:10.041Z,3.00
2019-05-23T14:41:13.986Z,2.50
2019-05-23T14:46:18.830Z,3.40
2019-05-23T14:51:40.555Z,3.00
2019-05-23T14:56:46.197Z,3.00
2019-05-23T15:01:49.968Z,3.00
2019-05-23T15:06:53.906Z,3.00
2019-05-23T15:11:57.759Z,2.50
2019-05-23T15:17:01.548Z,2.00
2019-05-23T15:22:05.306Z,2.00
2019-05-23T15:27:09.130Z,2.00
2019-05-23T15:32:12.910Z,2.25
2019-05-23T15:37:16.733Z,2.00
2019-05-23T15:42:20.505Z,2.00
2019-05-23T15:47:28.008Z,2.00
2019-05-23T15:52:40.565Z,3.00
2019-05-23T15:57:59.201Z,2.40
2019-05-23T16:03:13.845Z,3.00
2019-05-23T16:08:19.360Z,6.00
2019-05-23T16:13:23.520Z,10.40
2019-05-23T16:18:27.724Z,12.50
2019-05-23T16:23:31.526Z,14.20
2019-05-23T16:28:35.312Z,14.40
2019-05-23T16:33:39.338Z,13.00
2019-05-23T16:38:43.185Z,13.40
2019-05-23T16:43:47.216Z,11.25
2019-05-23T16:48:51.370Z,10.00
2019-05-23T16:53:55.175Z,9.60
2019-05-23T16:59:21.130Z,9.60
2019-05-23T17:04:43.879Z,7.25
2019-05-23T17:10:07.424Z,7.00
2019-05-23T17:15:05.541Z,6.00
2019-05-23T17:20:22.252Z,5.00
2019-05-23T17:25:50.277Z,5.80
2019-05-23T17:30:57.656Z,5.00
2019-05-23T17:36:01.530Z,5.00
2019-05-23T17:41:05.385Z,4.75
2019-05-23T17:46:09.151Z,4.00
2019-05-23T17:51:13.134Z,4.75
2019-05-23T17:56:17.044Z,3.80
2019-05-23T18:01:24.605Z,2.50
2019-05-23T18:06:28.793Z,3.00
2019-05-23T18:11:32.563Z,3.00
2019-05-23T18:16:37.503Z,3.00
2019-05-23T18:21:41.682Z,3.00
2019-05-23T18:26:45.482Z,3.00
2019-05-23T18:31:50.928Z,3.00
2019-05-23T18:36:54.740Z,3.00
2019-05-23T18:41:58.927Z,2.20
2019-05-23T18:47:04.448Z,2.00
2019-05-23T18:52:08.795Z,2.00
2019-05-23T18:57:12.620Z,3.50
2019-05-23T19:02:16.577Z,2.00
2019-05-23T19:07:20.388Z,2.00
2019-05-23T19:12:24.249Z,2.75
2019-05-23T19:17:28.033Z,2.25
2019-05-23T19:22:32.071Z,2.00
2019-05-23T19:27:37.001Z,2.75
2019-05-23T19:32:40.780Z,2.00
2019-05-23T19:37:45.218Z,3.00
2019-05-23T19:42:48.994Z,2.00
2019-05-23T19:47:52.846Z,2.00
2019-05-23T19:52:56.695Z,2.50
2019-05-23T19:58:00.729Z,2.00
2019-05-23T20:03:04.605Z,2.00
2019-05-23T20:08:08.536Z,1.60
2019-05-23T20:13:12.385Z,2.20
2019-05-23T20:18:16.651Z,1.80
2019-05-23T20:23:20.425Z,1.40
2019-05-23T20:28:24.603Z,1.00
2019-05-23T20:33:28.913Z,2.00
2019-05-23T20:38:33.011Z,1.75
2019-05-23T20:43:36.965Z,2.00
2019-05-23T20:48:40.806Z,2.00
2019-05-23T20:53:45.399Z,1.75
2019-05-23T20:58:49.308Z,1.00
2019-05-23T21:03:54.903Z,1.00
2019-05-23T21:08:58.748Z,1.75
2019-05-23T21:14:02.601Z,1.25
2019-05-23T21:19:06.435Z,1.00
2019-05-23T21:24:10.276Z,1.00
2019-05-23T21:29:14.094Z,2.00
2019-05-23T21:34:17.843Z,2.00
2019-05-23T21:39:22.171Z,1.00
2019-05-23T21:44:26.306Z,1.00
2019-05-23T21:49:30.149Z,1.00
2019-05-23T21:54:33.912Z,1.00
2019-05-23T21:59:37.885Z,1.00
2019-05-23T22:04:49.641Z,2.00
2019-05-23T22:09:53.455Z,2.00
2019-05-23T22:14:57.233Z,1.00
2019-05-23T22:20:01.141Z,2.00
2019-05-23T22:25:06.193Z,1.75
2019-05-23T22:30:10.144Z,1.00
2019-05-23T22:35:17.032Z,1.80
2019-05-23T22:40:20.831Z,2.00
2019-05-23T22:45:26.524Z,1.00
2019-05-23T22:50:30.333Z,1.00
2019-05-23T22:55:34.097Z,1.00
2019-05-23T23:00:39.731Z,1.60
2019-05-23T23:05:43.625Z,1.00
2019-05-23T23:10:47.395Z,1.00
2019-05-23T23:15:51.373Z,0.60
2019-05-23T23:20:55.145Z,1.00
2019-05-23T23:25:58.941Z,1.40
2019-05-23T23:31:03.058Z,1.00
2019-05-23T23:36:06.916Z,0.75
2019-05-23T23:41:10.709Z,1.00
2019-05-23T23:46:32.713Z,1.00
2019-05-23T23:51:54.170Z,1.00
2019-05-23T23:57:15.337Z,1.50
